Lakemoore, TN

10:28 PM EST on December 04, 2016 (GMT -0500)
RAWS | | Change Station

Elev 1163 ft 36.26 °N, 83.28 °W | Updated 1 hour ago

Mist
Mist
45.0 °F
Feels Like 45.0 °F
N
0.0
Wind Variable Wind from North
Gusts 3.0 mph

Today
High -- | Low -- °F
--% Chance of Precip.
Yesterday
High -- | Low -- °F
Precip. -- in
Pressure 30.02 in
Visibility 1.2 miles
Clouds
Dew Point 45.0 °F
Humidity 100%
Rainfall in
Snow Depth Not available.
7:28 AM 5:18 PM
Waxing Crescent, 27% visible
METAR K0VG 050310Z AUTO 00000KT 1 1/4SM BR 07/07 A3002 RMK AO2
Pressure 30.02 in
Visibility 1.2 miles
Clouds
Dew Point 45.0 °F
Humidity 100%
Rainfall in
Snow Depth Not available.
7:28 AM 5:18 PM
Waxing Crescent, 27% visible
METAR K0VG 050310Z AUTO 00000KT 1 1/4SM BR 07/07 A3002 RMK AO2

10-Day Weather Forecast

Almanac

Astronomy

Dec. 04, 2016 Rise Set
Actual Time
Civil Twilight
Nautical Twilight
Astronomical Twilight
Moon
Length of Visible Light
Length of Day
Tomorrow will be .
, % of the Moon is Illuminated

Today's Extremes

State Highs State Lows

Community

WunderPhotos

Upload Photos

1,955,752 photos uploaded!

WunderBlog® & News

Nearby

Air Quality

  Air Quality AQ Index Pollutant
Not available.

Snow Depth

Station Depth Elevation

Earthquake Activity

City Distance Mag. Time & Date
Minimum magnitude displayed is 2.5.

Coastal Water Temperatures

Place Temperature

Stations

Nearby Weather Stations

Station Location Temp. Windchill Dew Point Humidity Wind Precip. Elev Updated Type
                   

Watches & Warnings

There are currently no watches in effect.